createdAt,value
2022-12-22T00:00:38.389Z,2.45
2022-12-22T00:03:33.520Z,2.17
2022-12-22T00:06:22.599Z,2.42
2022-12-22T00:09:24.347Z,2.47
2022-12-22T00:12:17.425Z,2.20
2022-12-22T00:15:17.767Z,2.48
2022-12-22T00:31:17.747Z,2.62
2022-12-22T00:34:07.199Z,2.42
2022-12-22T00:37:16.555Z,2.57
2022-12-22T00:40:16.430Z,2.44
2022-12-22T00:43:13.300Z,2.45
2022-12-22T00:46:02.123Z,2.51
2022-12-22T00:48:53.760Z,2.62
2022-12-22T00:51:48.862Z,2.44
2022-12-22T00:54:45.096Z,2.57
2022-12-22T00:57:40.786Z,2.42
2022-12-22T01:00:34.875Z,2.44
2022-12-22T01:03:23.349Z,2.50
2022-12-22T01:06:15.722Z,2.40
2022-12-22T01:09:06.698Z,2.31
2022-12-22T01:12:05.665Z,2.38
2022-12-22T01:14:56.083Z,2.44
2022-12-22T01:17:51.033Z,2.65
2022-12-22T01:20:46.517Z,2.66
2022-12-22T01:23:36.844Z,2.65
2022-12-22T01:26:23.815Z,2.57
2022-12-22T01:29:13.441Z,2.77
2022-12-22T01:32:12.217Z,2.62
2022-12-22T01:35:06.206Z,2.59
2022-12-22T01:37:53.802Z,2.51
2022-12-22T01:40:43.667Z,2.57
2022-12-22T01:43:42.549Z,2.50
2022-12-22T01:47:13.616Z,2.66
2022-12-22T01:50:03.516Z,2.82
2022-12-22T01:53:04.786Z,2.59
2022-12-22T01:55:53.245Z,2.48
2022-12-22T01:58:49.596Z,2.42
2022-12-22T02:01:40.048Z,2.45
2022-12-22T02:04:34.940Z,2.64
2022-12-22T02:29:59.625Z,2.84
2022-12-22T02:59:13.322Z,3.10
2022-12-22T03:02:06.638Z,3.15
2022-12-22T03:05:00.182Z,2.99
2022-12-22T03:07:45.684Z,3.05
2022-12-22T03:10:34.541Z,3.31
2022-12-22T03:13:24.954Z,3.10
2022-12-22T03:16:13.167Z,2.65
2022-12-22T03:19:11.448Z,2.99
2022-12-22T03:21:58.113Z,2.91
2022-12-22T03:24:52.489Z,3.03
2022-12-22T03:27:22.729Z,2.97
2022-12-22T03:30:02.103Z,3.20
2022-12-22T03:37:04.233Z,3.31
2022-12-22T03:39:35.945Z,3.03
2022-12-22T03:42:31.441Z,2.93
2022-12-22T03:45:20.144Z,3.03
2022-12-22T03:47:52.418Z,2.99
2022-12-22T03:50:39.409Z,2.97
2022-12-22T03:53:19.239Z,2.86
2022-12-22T03:55:50.149Z,2.79
2022-12-22T03:58:39.773Z,2.89
2022-12-22T04:01:09.403Z,2.86
2022-12-22T04:03:52.959Z,2.85
2022-12-22T04:06:23.685Z,3.05
2022-12-22T04:08:54.135Z,2.96
2022-12-22T04:11:40.839Z,2.89
2022-12-22T04:14:11.015Z,2.92
2022-12-22T04:16:40.604Z,2.84
2022-12-22T04:19:16.177Z,3.10
2022-12-22T04:21:55.623Z,3.15
2022-12-22T04:24:27.018Z,3.05
2022-12-22T04:27:00.011Z,3.23
2022-12-22T04:29:53.689Z,2.96
2022-12-22T04:32:34.578Z,2.84
2022-12-22T04:35:19.258Z,2.97
2022-12-22T04:37:51.065Z,2.85
2022-12-22T04:40:46.886Z,2.79
2022-12-22T04:43:39.002Z,2.81
2022-12-22T04:46:16.979Z,2.95
2022-12-22T04:49:04.791Z,2.89
2022-12-22T04:51:37.905Z,3.00
2022-12-22T04:54:15.299Z,3.10
2022-12-22T04:56:45.069Z,3.05
2022-12-22T04:59:18.658Z,3.07
2022-12-22T05:01:54.024Z,3.02
2022-12-22T05:04:34.235Z,2.78
2022-12-22T05:07:04.155Z,2.75
2022-12-22T05:09:36.133Z,2.89
2022-12-22T05:12:26.264Z,3.07
2022-12-22T05:15:00.869Z,3.34
2022-12-22T05:17:35.336Z,3.48
2022-12-22T05:20:11.537Z,3.40
2022-12-22T05:22:47.170Z,3.13
2022-12-22T05:25:22.400Z,3.09
2022-12-22T05:27:54.652Z,3.37
2022-12-22T05:30:24.814Z,3.41
2022-12-22T05:33:08.903Z,3.67
2022-12-22T05:35:41.495Z,3.45
2022-12-22T05:38:11.263Z,3.53
2022-12-22T05:40:49.987Z,3.53
2022-12-22T05:43:23.342Z,3.51
2022-12-22T05:46:00.372Z,3.58
2022-12-22T05:48:33.691Z,3.51
2022-12-22T05:51:15.765Z,3.50
2022-12-22T05:53:49.283Z,3.67
2022-12-22T05:56:39.729Z,3.64
2022-12-22T05:59:12.361Z,3.67
2022-12-22T06:01:42.317Z,3.51
2022-12-22T06:04:14.909Z,3.53
2022-12-22T06:06:45.031Z,3.53
2022-12-22T06:09:21.566Z,3.47
2022-12-22T06:11:51.548Z,3.54
2022-12-22T06:14:21.607Z,3.43
2022-12-22T06:16:53.965Z,3.33
2022-12-22T06:32:45.275Z,3.36
2022-12-22T06:35:22.794Z,3.44
2022-12-22T06:37:51.143Z,3.43
2022-12-22T06:40:32.073Z,3.54
2022-12-22T06:43:17.809Z,3.53
2022-12-22T06:45:45.661Z,3.48
2022-12-22T06:48:13.465Z,3.58
2022-12-22T06:50:47.090Z,3.65
2022-12-22T06:53:19.523Z,3.53
2022-12-22T06:55:48.837Z,3.65
2022-12-22T06:58:19.329Z,3.64
2022-12-22T07:00:51.312Z,3.70
2022-12-22T07:03:32.064Z,3.63
2022-12-22T07:06:02.336Z,3.54
2022-12-22T07:08:39.206Z,3.33
2022-12-22T07:11:15.476Z,3.34
2022-12-22T07:14:05.645Z,3.44
2022-12-22T07:16:42.267Z,3.44
2022-12-22T07:19:12.286Z,3.47
2022-12-22T07:22:00.446Z,3.38
2022-12-22T07:24:33.950Z,3.50
2022-12-22T07:27:03.031Z,3.61
2022-12-22T07:29:34.002Z,3.61
2022-12-22T07:32:02.926Z,3.54
2022-12-22T07:34:40.533Z,3.61
2022-12-22T07:37:13.789Z,3.54
2022-12-22T07:39:48.905Z,3.57
2022-12-22T07:42:43.622Z,3.67
2022-12-22T07:45:26.479Z,3.61
2022-12-22T07:48:32.380Z,3.55
2022-12-22T07:51:13.902Z,3.44
2022-12-22T07:53:48.829Z,3.41
2022-12-22T07:56:18.775Z,3.27
2022-12-22T07:58:47.286Z,3.34
2022-12-22T08:01:17.583Z,3.45
2022-12-22T08:03:44.755Z,3.50
2022-12-22T08:06:17.506Z,3.53
2022-12-22T08:08:56.028Z,3.60
2022-12-22T08:11:28.037Z,3.48
2022-12-22T08:14:01.680Z,3.45
2022-12-22T08:16:39.775Z,3.54
2022-12-22T08:19:07.126Z,3.57
2022-12-22T08:21:37.137Z,3.58
2022-12-22T08:24:13.059Z,3.79
2022-12-22T08:26:49.829Z,3.74
2022-12-22T08:29:42.771Z,3.77
2022-12-22T08:32:29.877Z,3.77
2022-12-22T08:35:06.939Z,3.82
2022-12-22T08:37:42.313Z,3.78
2022-12-22T08:40:42.460Z,3.98
2022-12-22T08:43:21.381Z,3.92
2022-12-22T08:45:50.939Z,3.95
2022-12-22T08:48:28.912Z,3.95
2022-12-22T08:51:04.296Z,4.02
2022-12-22T08:54:04.535Z,4.05
2022-12-22T08:56:37.743Z,3.96
2022-12-22T08:59:14.307Z,4.09
2022-12-22T09:01:51.742Z,4.02
2022-12-22T09:04:27.222Z,4.13
2022-12-22T09:06:54.496Z,4.22
2022-12-22T09:09:26.547Z,4.24
2022-12-22T09:12:16.369Z,4.32
2022-12-22T09:14:48.727Z,4.54
2022-12-22T09:17:30.269Z,4.50
2022-12-22T09:20:06.161Z,4.40
2022-12-22T09:22:43.599Z,4.16
2022-12-22T09:25:14.367Z,4.07
2022-12-22T09:27:44.337Z,3.95
2022-12-22T09:56:46.498Z,4.58
2022-12-22T09:59:16.229Z,4.22
2022-12-22T10:10:53.084Z,5.02
2022-12-22T10:13:38.093Z,5.00
2022-12-22T10:16:32.986Z,5.23
2022-12-22T10:19:23.698Z,5.27
2022-12-22T10:22:32.154Z,5.15
2022-12-22T10:25:08.273Z,4.99
2022-12-22T10:27:51.288Z,5.20
2022-12-22T10:30:29.467Z,5.43
2022-12-22T10:33:13.683Z,5.46
2022-12-22T10:40:42.012Z,5.44
2022-12-22T10:43:21.308Z,5.54
2022-12-22T10:45:59.255Z,5.47
2022-12-22T10:48:41.283Z,5.42
2022-12-22T10:51:15.761Z,5.27
2022-12-22T10:53:56.430Z,5.42
2022-12-22T10:56:32.218Z,5.46
2022-12-22T10:59:02.159Z,5.47
2022-12-22T11:01:40.467Z,5.33
2022-12-22T11:04:31.760Z,5.51
2022-12-22T11:07:02.439Z,5.46
2022-12-22T11:09:37.996Z,5.58
2022-12-22T11:12:26.527Z,5.68
2022-12-22T11:15:12.357Z,5.78
2022-12-22T11:18:05.225Z,5.83
2022-12-22T11:21:11.400Z,5.79
2022-12-22T11:24:05.740Z,5.93
2022-12-22T11:27:04.097Z,5.99
2022-12-22T11:30:07.729Z,5.85
2022-12-22T11:33:10.218Z,5.74
2022-12-22T11:35:48.957Z,5.64
2022-12-22T11:38:44.277Z,5.71
2022-12-22T11:41:45.000Z,5.77
2022-12-22T11:44:46.659Z,5.79
2022-12-22T11:47:50.668Z,5.85
2022-12-22T11:51:01.998Z,5.93
2022-12-22T11:53:53.766Z,6.06
2022-12-22T11:56:47.045Z,6.08
2022-12-22T11:59:58.254Z,6.08
2022-12-22T12:03:00.632Z,6.05
2022-12-22T12:06:04.890Z,6.06
2022-12-22T12:08:58.050Z,6.09
2022-12-22T12:12:14.813Z,6.11
2022-12-22T12:15:12.941Z,6.11
2022-12-22T12:18:22.720Z,6.13
2022-12-22T12:21:21.307Z,6.15
2022-12-22T12:24:10.430Z,6.23
2022-12-22T12:26:56.443Z,6.23
2022-12-22T12:29:41.228Z,6.18
2022-12-22T12:32:20.381Z,6.23
2022-12-22T12:34:56.787Z,6.26
2022-12-22T12:37:40.735Z,6.36
2022-12-22T12:40:36.301Z,6.46
2022-12-22T12:43:16.252Z,6.57
2022-12-22T12:45:59.019Z,6.60
2022-12-22T12:48:34.555Z,6.70
2022-12-22T12:51:04.185Z,6.69
2022-12-22T12:53:36.854Z,6.73
2022-12-22T12:56:11.753Z,6.81
2022-12-22T12:58:53.490Z,6.84
2022-12-22T13:01:33.963Z,6.91
2022-12-22T13:04:15.252Z,6.97
2022-12-22T13:06:51.716Z,7.07
2022-12-22T13:12:58.437Z,7.07
2022-12-22T13:15:45.309Z,7.02
2022-12-22T13:18:23.626Z,7.04
2022-12-22T13:24:29.505Z,7.12
2022-12-22T13:27:14.501Z,7.07
2022-12-22T13:29:52.763Z,7.11
2022-12-22T13:32:34.219Z,7.00
2022-12-22T13:37:54.060Z,6.92
2022-12-22T13:40:36.548Z,6.91
2022-12-22T13:43:36.600Z,6.91
2022-12-22T13:46:12.411Z,6.88
2022-12-22T13:48:45.486Z,6.80
2022-12-22T13:51:26.569Z,6.70
2022-12-22T13:54:09.693Z,6.69
2022-12-22T13:56:42.839Z,6.67
2022-12-22T13:59:40.493Z,6.64
2022-12-22T14:02:11.340Z,6.73
2022-12-22T14:04:44.121Z,6.67
2022-12-22T14:07:19.480Z,6.57
2022-12-22T14:09:55.996Z,6.53
2022-12-22T14:12:48.563Z,6.56
2022-12-22T14:15:26.924Z,6.58
2022-12-22T14:17:57.667Z,6.50
2022-12-22T14:20:40.380Z,6.52
2022-12-22T14:23:38.874Z,6.52
2022-12-22T14:26:39.947Z,6.46
2022-12-22T14:29:20.265Z,6.42
2022-12-22T14:32:07.050Z,6.50
2022-12-22T14:39:07.345Z,6.57
2022-12-22T14:41:54.183Z,6.58
2022-12-22T14:44:32.019Z,6.57
2022-12-22T14:47:14.638Z,6.58
2022-12-22T14:49:49.947Z,6.60
2022-12-22T14:52:24.105Z,6.56
2022-12-22T14:55:00.728Z,6.64
2022-12-22T14:57:43.107Z,6.80
2022-12-22T15:00:24.578Z,6.76
2022-12-22T15:03:25.472Z,6.79
2022-12-22T15:05:59.569Z,6.92
2022-12-22T15:08:41.056Z,6.76
2022-12-22T15:11:20.935Z,6.84
2022-12-22T15:13:49.980Z,6.76
2022-12-22T15:16:27.095Z,6.58
2022-12-22T15:18:58.351Z,6.36
2022-12-22T15:21:32.072Z,6.32
2022-12-22T15:24:37.370Z,6.23
2022-12-22T15:27:37.367Z,6.37
2022-12-22T15:30:08.310Z,6.23
2022-12-22T15:32:41.185Z,6.28
2022-12-22T15:35:35.465Z,6.13
2022-12-22T15:38:15.106Z,6.23
2022-12-22T15:40:44.798Z,6.16
2022-12-22T15:46:22.310Z,6.32
2022-12-22T15:48:51.791Z,6.34
2022-12-22T15:51:39.484Z,6.34
2022-12-22T15:54:14.587Z,6.36
2022-12-22T15:56:44.449Z,6.40
2022-12-22T15:59:22.531Z,6.44
2022-12-22T16:02:01.720Z,6.29
2022-12-22T16:04:36.163Z,6.23
2022-12-22T16:07:10.983Z,6.33
2022-12-22T16:09:46.940Z,6.22
2022-12-22T16:12:19.744Z,6.19
2022-12-22T16:14:55.759Z,6.05
2022-12-22T16:17:37.646Z,6.02
2022-12-22T16:20:09.227Z,6.01
2022-12-22T16:22:42.506Z,6.05
2022-12-22T16:25:21.112Z,6.01
2022-12-22T16:27:51.437Z,5.99
2022-12-22T16:30:22.306Z,6.05
2022-12-22T16:32:51.977Z,6.13
2022-12-22T16:35:24.437Z,6.32
2022-12-22T16:38:05.479Z,6.26
2022-12-22T16:40:42.177Z,6.15
2022-12-22T16:46:25.011Z,6.25
2022-12-22T16:49:00.131Z,5.90
2022-12-22T16:51:40.199Z,5.98
2022-12-22T16:54:15.669Z,5.95
2022-12-22T16:56:56.256Z,5.98
2022-12-22T16:59:31.207Z,6.15
2022-12-22T17:02:01.430Z,6.09
2022-12-22T17:04:30.962Z,6.22
2022-12-22T17:07:24.370Z,6.19
2022-12-22T17:10:53.917Z,5.93
2022-12-22T17:13:25.896Z,5.91
2022-12-22T17:16:08.822Z,5.94
2022-12-22T17:18:45.881Z,5.94
2022-12-22T17:21:25.387Z,5.78
2022-12-22T17:23:55.406Z,5.77
2022-12-22T17:26:28.837Z,5.95
2022-12-22T17:29:09.331Z,5.88
2022-12-22T17:31:47.706Z,5.70
2022-12-22T17:34:34.679Z,5.85
2022-12-22T17:37:17.198Z,5.63
2022-12-22T17:39:51.597Z,5.35
2022-12-22T17:46:35.830Z,5.42
2022-12-22T17:49:03.266Z,5.43
2022-12-22T17:51:34.618Z,5.44
2022-12-22T17:54:11.204Z,5.44
2022-12-22T17:56:40.857Z,5.58
2022-12-22T17:59:15.299Z,5.60
2022-12-22T18:01:47.814Z,5.51
2022-12-22T18:04:26.313Z,5.43
2022-12-22T18:07:10.954Z,5.57
2022-12-22T18:09:44.004Z,5.48
2022-12-22T18:12:33.683Z,5.50
2022-12-22T18:15:38.407Z,5.37
2022-12-22T18:18:21.096Z,5.47
2022-12-22T18:21:06.476Z,5.40
2022-12-22T18:23:47.937Z,5.35
2022-12-22T18:26:34.765Z,5.42
2022-12-22T18:29:07.658Z,5.25
2022-12-22T18:31:47.285Z,5.27
2022-12-22T18:38:42.198Z,5.13
2022-12-22T18:41:22.950Z,5.02
2022-12-22T18:43:53.488Z,5.18
2022-12-22T18:46:27.070Z,5.35
2022-12-22T18:49:03.441Z,5.37
2022-12-22T19:14:06.026Z,5.43
2022-12-22T19:16:50.669Z,5.40
2022-12-22T19:19:23.017Z,5.36
2022-12-22T19:22:00.901Z,5.44
2022-12-22T19:24:30.188Z,5.43
2022-12-22T19:27:07.537Z,5.42
2022-12-22T19:29:38.181Z,5.46
2022-12-22T19:32:22.812Z,5.25
2022-12-22T19:34:53.993Z,5.29
2022-12-22T19:37:24.365Z,5.18
2022-12-22T19:40:10.345Z,5.16
2022-12-22T19:42:43.552Z,5.04
2022-12-22T19:45:22.166Z,5.13
2022-12-22T19:48:01.498Z,5.08
2022-12-22T19:50:32.528Z,4.95
2022-12-22T19:53:02.941Z,4.99
2022-12-22T19:55:37.047Z,5.06
2022-12-22T19:58:08.974Z,5.22
2022-12-22T20:00:41.603Z,5.15
2022-12-22T20:03:17.572Z,5.19
2022-12-22T20:05:51.785Z,5.11
2022-12-22T20:08:26.409Z,5.23
2022-12-22T20:11:01.797Z,5.32
2022-12-22T20:13:35.821Z,5.30
2022-12-22T20:16:12.909Z,5.35
2022-12-22T20:18:43.890Z,5.29
2022-12-22T20:21:20.756Z,5.33
2022-12-22T20:23:48.642Z,5.36
2022-12-22T20:26:23.488Z,5.40
2022-12-22T20:28:55.357Z,5.40
2022-12-22T20:31:35.633Z,5.35
2022-12-22T20:34:10.474Z,5.39
2022-12-22T20:36:45.588Z,5.39
2022-12-22T20:39:20.497Z,5.51
2022-12-22T20:41:54.097Z,5.51
2022-12-22T20:45:03.287Z,5.50
2022-12-22T20:47:36.698Z,5.48
2022-12-22T20:50:31.015Z,5.56
2022-12-22T20:52:58.213Z,5.44
2022-12-22T20:55:40.354Z,5.42
2022-12-22T20:58:22.834Z,5.60
2022-12-22T21:01:00.124Z,5.35
2022-12-22T21:03:33.928Z,5.54
2022-12-22T21:06:22.812Z,5.39
2022-12-22T21:08:54.787Z,5.42
2022-12-22T21:11:25.419Z,5.58
2022-12-22T21:13:56.246Z,5.51
2022-12-22T21:16:27.742Z,5.30
2022-12-22T21:19:17.134Z,5.47
2022-12-22T21:21:54.855Z,5.66
2022-12-22T21:24:47.914Z,5.73
2022-12-22T21:27:25.982Z,5.79
2022-12-22T21:32:44.639Z,5.91
2022-12-22T21:35:23.307Z,5.99
2022-12-22T21:38:00.696Z,6.08
2022-12-22T21:40:35.727Z,5.94
2022-12-22T21:43:02.999Z,5.94
2022-12-22T21:45:39.560Z,5.84
2022-12-22T21:48:29.005Z,6.05
2022-12-22T21:51:02.200Z,5.81
2022-12-22T21:53:35.119Z,5.81
2022-12-22T21:56:02.322Z,5.78
2022-12-22T21:58:38.668Z,5.97
2022-12-22T22:01:14.199Z,6.19
2022-12-22T22:03:44.768Z,6.22
2022-12-22T22:06:14.327Z,5.81
2022-12-22T22:08:41.487Z,5.81
2022-12-22T22:11:29.085Z,5.78
2022-12-22T22:14:12.201Z,5.88
2022-12-22T22:16:44.890Z,6.04
2022-12-22T22:19:15.119Z,6.11
2022-12-22T22:21:49.679Z,6.19
2022-12-22T22:24:23.139Z,6.26
2022-12-22T22:26:51.661Z,6.22
2022-12-22T22:29:31.684Z,6.06
2022-12-22T22:32:01.906Z,6.23
2022-12-22T22:34:33.903Z,6.21
2022-12-22T22:37:04.061Z,6.28
2022-12-22T22:39:53.680Z,6.33
2022-12-22T22:42:38.383Z,6.29
2022-12-22T22:45:09.046Z,6.25
2022-12-22T22:47:38.679Z,6.08
2022-12-22T22:50:13.780Z,6.05
2022-12-22T22:52:43.276Z,6.04
2022-12-22T22:55:18.591Z,6.09
2022-12-22T22:58:28.530Z,6.06
2022-12-22T23:01:09.913Z,6.01
2022-12-22T23:03:42.197Z,5.93
2022-12-22T23:06:23.507Z,6.01
2022-12-22T23:09:16.654Z,5.97
2022-12-22T23:11:55.174Z,6.01
2022-12-22T23:14:24.693Z,6.12
2022-12-22T23:16:55.231Z,5.97
2022-12-22T23:19:27.415Z,5.87
2022-12-22T23:21:57.912Z,5.95
2022-12-22T23:24:29.156Z,6.05
2022-12-22T23:26:59.088Z,6.11
2022-12-22T23:29:30.979Z,6.11
2022-12-22T23:32:03.861Z,6.09
2022-12-22T23:34:33.836Z,6.15
2022-12-22T23:37:12.149Z,6.19
2022-12-22T23:39:47.079Z,6.06
2022-12-22T23:42:14.281Z,5.84
2022-12-22T23:45:04.506Z,5.84
2022-12-22T23:47:32.840Z,5.73
2022-12-22T23:50:09.202Z,5.71
2022-12-22T23:52:51.884Z,6.04
2022-12-22T23:55:25.620Z,5.91
2022-12-22T23:57:57.242Z,5.95
